KHMN/HMN METAR and TAF weather

Enter ICAO airport designator
Station Type Date Time Source
KHMN METAR 2019/05/26 22:58 UTC NOAA

KHMN 262258Z AUTO 20025G32KT 7SM BKN023 31/00 A2984 RMK AO2 PK WND 21033/32 CIG 019 RWY34 SLP036 T03090003 $


Station Type Date Time Source
KHMN Decoded METAR 2019/05/26 22:58 UTC NOAA

Holloman Air Force Base, NM, United States (KHMN) 32-51N 106-06W 1248M
May 26, 2019 - 06:58 PM EDT / 2019.05.26 2258 UTC
Wind: from the SSW (200 degrees) at 29 MPH (25 KT) gusting to 37 MPH (32 KT):0
Visibility: 7 mile(s):0
Sky conditions: mostly cloudy
Temperature: 87.6 F (30.9 C)
Dew Point: 32.5 F (0.3 C)
Relative Humidity: 13%
Pressure (altimeter): 29.84 in. Hg (1010 hPa)
ob: KHMN 262258Z AUTO 20025G32KT 7SM BKN023 31/00 A2984 RMK AO2 PK WND 21033/32 CIG 019 RWY34 SLP036 T03090003
cycle: 23

Station Type Date Time Source
KHMN TAF 2019/05/24 02:32 UTC NOAA

TAF
AMD KHMN 240222Z 2402/2507 25015G25KT 9999 SKC 510005 QNH2994INS
BECMG 2402/2403 29009KT 9999 SKC QNH2995INS
BECMG 2417/2418 22010G15KT 9999 SKC QNH2990INS
BECMG 2419/2420 22015G20KT 9999 SKC 520006 QNH2987INS
BECMG 2501/2502 VRB06KT 9999 SKC QNH2990INS TX30/2422Z TN11/2412Z LAST NO
AMDS AFT 2401 NEXT 2803

Example: see airport list